Time;durP1;ratioP1;P1;durP2;ratioP2;P2;SDS_P1;SDS_P2;PMS_P1;PMS_P2;Temp;Humidity;BMP_temperature;BMP_pressure;BME280_temperature;BME280_humidity;BME280_pressure;Samples;Min_cycle;Max_cycle;Signal;HPM_P1;HPM_P2
2022/09/26 00:02:07;;;;;;;;;3.33;1.00;;;;;15.72;100.00;101123.94;5035882;28;45609;-71
2022/09/26 00:04:32;;;;;;;;;0.67;0.67;;;;;15.69;100.00;101106.19;5032383;28;45507;-71
2022/09/26 00:06:58;;;;;;;;;1.00;1.00;;;;;15.70;100.00;101099.09;5035430;28;67920;-72
2022/09/26 00:09:25;;;;;;;;;1.00;1.00;;;;;15.73;100.00;101099.09;5036563;28;45273;-73
2022/09/26 00:11:50;;;;;;;;;1.00;1.00;;;;;15.76;100.00;101103.50;5018239;28;45338;-71
2022/09/26 00:14:25;;;;;;;;;3.00;0.00;;;;;15.73;100.00;101090.22;5035690;28;45221;-71
2022/09/26 00:16:51;;;;;;;;;1.00;1.00;;;;;15.77;100.00;101094.63;5034287;28;46480;-72
2022/09/26 00:19:16;;;;;;;;;2.00;1.00;;;;;15.76;100.00;101087.53;5033332;28;45429;-70
2022/09/26 00:21:42;;;;;;;;;3.00;1.00;;;;;15.71;100.00;101083.13;5036358;28;45313;-71
2022/09/26 00:24:07;;;;;;;;;0.67;0.67;;;;;15.71;100.00;101079.56;5034667;28;61977;-72
2022/09/26 00:26:34;;;;;;;;;2.00;0.33;;;;;15.65;100.00;101072.50;5036328;28;49372;-72
2022/09/26 00:29:03;;;;;;;;;0.33;0.33;;;;;15.75;100.00;101080.44;5036135;28;45347;-73
2022/09/26 00:31:30;;;;;;;;;0.33;0.33;;;;;15.71;100.00;101068.91;5035264;28;45364;-71
2022/09/26 00:33:56;;;;;;;;;1.00;1.00;;;;;15.74;100.00;101070.69;5036087;28;45491;-72
2022/09/26 00:36:22;;;;;;;;;1.00;1.00;;;;;15.68;100.00;101063.63;5035781;28;46829;-71
2022/09/26 00:38:48;;;;;;;;;1.00;1.00;;;;;15.67;100.00;101057.41;5036179;28;45340;-73
2022/09/26 00:41:13;;;;;;;;;1.00;1.00;;;;;15.65;100.00;101053.84;5036153;28;45201;-72
2022/09/26 00:43:47;;;;;;;;;1.00;1.00;;;;;15.64;100.00;101059.19;5031794;28;45550;-72
2022/09/26 00:46:24;;;;;;;;;1.33;1.33;;;;;15.67;100.00;101065.41;5035059;28;45732;-73
2022/09/26 00:49:05;;;;;;;;;0.67;0.00;;;;;15.66;100.00;101066.31;5035741;28;45439;-72
2022/09/26 00:51:33;;;;;;;;;1.00;1.00;;;;;15.60;100.00;101050.31;5035962;28;45575;-71
2022/09/26 00:53:58;;;;;;;;;2.00;1.00;;;;;15.64;100.00;101057.41;5033583;28;45613;-71
2022/09/26 00:56:32;;;;;;;;;2.00;2.00;;;;;15.59;100.00;101045.88;5035290;28;61948;-70
2022/09/26 00:59:26;;;;;;;;;0.00;0.00;;;;;15.64;100.00;101049.44;5036010;28;45499;-71
2022/09/26 01:01:53;;;;;;;;;1.00;1.00;;;;;15.58;100.00;101037.91;5033856;28;45317;-71
2022/09/26 01:04:20;;;;;;;;;1.00;1.00;;;;;15.64;100.00;101045.91;5016288;28;45784;-71
2022/09/26 01:06:45;;;;;;;;;1.00;1.00;;;;;15.63;100.00;101045.00;5015823;28;46423;-71
2022/09/26 01:09:12;;;;;;;;;2.33;1.00;;;;;15.57;100.00;101039.69;5034084;28;45840;-71
2022/09/26 01:11:40;;;;;;;;;2.00;0.33;;;;;15.57;100.00;101037.03;5016665;28;45514;-71
2022/09/26 01:14:08;;;;;;;;;2.33;2.00;;;;;15.59;100.00;101043.22;5030722;28;45836;-71
2022/09/26 01:16:34;;;;;;;;;3.67;1.00;;;;;15.58;100.00;101044.13;5033157;28;47206;-71
2022/09/26 01:19:01;;;;;;;;;1.00;1.00;;;;;15.59;100.00;101043.22;5015421;28;45629;-71
2022/09/26 01:21:46;;;;;;;;;2.33;1.00;;;;;15.56;100.00;101042.38;5033942;28;45463;-71
2022/09/26 01:24:36;;;;;;;;;1.00;1.00;;;;;15.55;100.00;101044.13;5032553;28;45570;-72
2022/09/26 01:27:14;;;;;;;;;1.00;1.00;;;;;15.35;100.00;101004.34;5032317;28;47289;-71
2022/09/26 01:30:14;;;;;;;;;1.00;1.00;;;;;15.57;100.00;101036.16;5033245;28;45638;-71
2022/09/26 01:32:48;;;;;;;;;2.00;2.00;;;;;15.58;100.00;101028.16;4972530;28;45588;-73
2022/09/26 01:35:41;;;;;;;;;0.00;0.00;;;;;15.58;100.00;101036.13;5022466;28;45455;-71
2022/09/26 01:38:15;;;;;;;;;1.00;1.00;;;;;15.58;100.00;101029.94;5033658;28;45589;-72
2022/09/26 01:41:03;;;;;;;;;1.00;1.00;;;;;15.56;100.00;101026.41;5033848;28;45519;-71
2022/09/26 01:44:04;;;;;;;;;1.67;1.00;;;;;15.54;100.00;101025.50;5015319;28;47210;-71
2022/09/26 01:46:57;;;;;;;;;3.00;1.00;;;;;15.49;100.00;101022.88;5008810;28;45440;-72
2022/09/26 01:49:27;;;;;;;;;1.00;1.00;;;;;15.44;100.00;101011.38;5033059;28;46566;-71
2022/09/26 01:52:02;;;;;;;;;2.00;1.00;;;;;15.48;100.00;101013.13;5032755;28;45562;-71
2022/09/26 01:54:37;;;;;;;;;0.00;0.00;;;;;15.43;100.00;100999.84;5031840;28;45323;-71
2022/09/26 01:57:05;;;;;;;;;2.00;0.00;;;;;15.49;100.00;101003.38;5032342;28;45799;-71
2022/09/26 01:59:35;;;;;;;;;2.00;1.00;;;;;15.41;100.00;100988.34;5031610;28;45706;-73
2022/09/26 02:02:05;;;;;;;;;1.00;1.00;;;;;15.45;100.00;100990.09;5032440;28;45506;-73
2022/09/26 02:04:37;;;;;;;;;0.67;0.67;;;;;15.47;100.00;100998.06;5030277;28;45336;-72
2022/09/26 02:07:16;;;;;;;;;1.00;1.00;;;;;15.43;100.00;100983.00;5017482;28;45736;-71
2022/09/26 02:09:45;;;;;;;;;1.00;1.00;;;;;15.48;100.00;100982.97;5037177;28;45840;-73
2022/09/26 02:12:20;;;;;;;;;0.33;0.33;;;;;15.49;100.00;100980.28;5037337;28;45510;-73
2022/09/26 02:14:47;;;;;;;;;1.67;1.00;;;;;15.48;100.00;100982.97;5035923;28;45465;-71
2022/09/26 02:17:19;;;;;;;;;1.00;1.00;;;;;15.44;100.00;100960.81;5018954;28;61589;-74
2022/09/26 02:19:55;;;;;;;;;0.33;0.00;;;;;15.38;100.00;100961.75;5036429;28;46588;-71
2022/09/26 02:22:20;;;;;;;;;0.33;0.33;;;;;15.31;100.00;100948.50;5037267;28;45476;-71
2022/09/26 02:24:45;;;;;;;;;1.00;1.00;;;;;15.34;100.00;100959.09;5037182;28;64931;-71
2022/09/26 02:27:11;;;;;;;;;1.67;1.67;;;;;15.28;100.00;100946.72;5036931;28;58138;-72
2022/09/26 02:29:36;;;;;;;;;0.67;0.67;;;;;15.26;100.00;100948.53;5036620;28;66448;-73
2022/09/26 02:32:11;;;;;;;;;1.00;1.00;;;;;15.23;100.00;100937.00;5038052;28;45318;-74
2022/09/26 02:34:37;;;;;;;;;2.00;1.00;;;;;15.22;100.00;100933.47;5002130;28;45345;-72
2022/09/26 02:37:04;;;;;;;;;0.33;0.33;;;;;15.19;100.00;100934.41;5033455;28;45359;-71
2022/09/26 02:39:29;;;;;;;;;1.00;1.00;;;;;15.28;100.00;100929.88;5018241;28;46757;-71
2022/09/26 02:42:06;;;;;;;;;1.00;1.00;;;;;15.29;100.00;100926.38;5020825;28;45432;-71
2022/09/26 02:45:00;;;;;;;;;2.67;1.00;;;;;15.27;100.00;100915.72;5016853;28;45579;-73
2022/09/26 02:47:41;;;;;;;;;1.00;1.00;;;;;15.31;100.00;100911.25;5018454;28;45749;-72
2022/09/26 02:50:31;;;;;;;;;0.00;0.00;;;;;15.26;100.00;100900.66;5026471;28;45688;-72
2022/09/26 02:53:23;;;;;;;;;1.00;1.00;;;;;15.30;100.00;100898.84;5019084;28;45523;-71
2022/09/26 02:55:57;;;;;;;;;0.00;0.00;;;;;15.28;100.00;100895.31;5021031;28;45395;-71
2022/09/26 02:58:34;;;;;;;;;1.00;0.33;;;;;15.25;100.00;100898.00;5018109;28;45543;-71
2022/09/26 03:01:28;;;;;;;;;1.00;1.00;;;;;15.21;100.00;100881.19;5005620;28;46450;-71
2022/09/26 03:04:19;;;;;;;;;0.33;0.33;;;;;15.18;100.00;100879.44;5017736;28;45598;-71
2022/09/26 03:06:47;;;;;;;;;0.00;0.00;;;;;15.14;100.00;100861.72;5006134;28;45588;-71
2022/09/26 03:09:14;;;;;;;;;0.00;0.00;;;;;15.15;100.00;100854.63;5033845;28;45454;-71
2022/09/26 03:11:40;;;;;;;;;3.00;1.00;;;;;15.22;100.00;100858.13;5022566;28;65191;-71
2022/09/26 03:14:07;;;;;;;;;2.00;0.67;;;;;15.23;100.00;100858.09;4999988;28;45276;-71
2022/09/26 03:16:38;;;;;;;;;1.00;1.00;;;;;15.14;100.00;100829.81;5017465;28;57992;-71
2022/09/26 03:19:16;;;;;;;;;0.00;0.00;;;;;15.25;100.00;100848.34;5008668;28;46645;-72
2022/09/26 03:21:41;;;;;;;;;1.00;1.00;;;;;15.16;100.00;100833.31;5026643;28;46733;-71
2022/09/26 03:24:07;;;;;;;;;1.00;1.00;;;;;15.15;100.00;100836.00;5032104;28;45320;-71
2022/09/26 03:26:33;;;;;;;;;1.00;1.00;;;;;15.16;100.00;100829.78;5020829;28;59108;-72
2022/09/26 03:28:59;;;;;;;;;0.00;0.00;;;;;15.13;100.00;100825.41;5029212;28;55191;-72
2022/09/26 03:31:24;;;;;;;;;2.00;1.00;;;;;15.15;100.00;100822.72;5017252;28;64924;-72
2022/09/26 03:33:50;;;;;;;;;0.00;0.00;;;;;15.11;100.00;100824.50;5017638;28;45431;-71
2022/09/26 03:36:16;;;;;;;;;1.00;1.00;;;;;15.13;100.00;100813.88;5014285;28;45300;-73
2022/09/26 03:38:41;;;;;;;;;0.00;0.00;;;;;15.07;100.00;100796.16;5036961;28;45280;-71
2022/09/26 03:41:08;;;;;;;;;1.00;1.00;;;;;15.09;100.00;100802.38;5035836;28;66575;-72
2022/09/26 03:43:34;;;;;;;;;0.00;0.00;;;;;15.12;100.00;100804.09;5035898;28;45510;-73
2022/09/26 03:46:04;;;;;;;;;0.00;0.00;;;;;15.03;100.00;100796.22;5036453;28;45663;-72
2022/09/26 03:48:30;;;;;;;;;1.00;0.00;;;;;15.10;100.00;100814.75;5036750;28;45545;-71
2022/09/26 03:51:01;;;;;;;;;0.67;0.67;;;;;15.08;100.00;100803.28;5035534;28;47286;-71
2022/09/26 03:53:26;;;;;;;;;2.00;1.00;;;;;15.04;100.00;100797.97;5036709;28;45554;-73
2022/09/26 03:55:51;;;;;;;;;0.00;0.00;;;;;15.04;100.00;100790.00;5035583;28;57138;-71
2022/09/26 03:58:17;;;;;;;;;3.00;1.00;;;;;15.00;100.00;100780.28;5035922;28;57441;-71
2022/09/26 04:00:42;;;;;;;;;0.00;0.00;;;;;15.04;100.00;100795.31;5036303;28;45643;-73
2022/09/26 04:03:09;;;;;;;;;2.00;1.00;;;;;14.99;100.00;100779.41;5035559;28;65047;-71
2022/09/26 04:05:34;;;;;;;;;2.00;1.00;;;;;15.05;100.00;100782.00;5036047;28;45504;-71
2022/09/26 04:08:01;;;;;;;;;1.00;1.00;;;;;15.06;100.00;100778.44;5036572;28;45556;-72
2022/09/26 04:10:27;;;;;;;;;1.00;1.00;;;;;15.01;100.00;100756.31;5036382;28;45690;-72
2022/09/26 04:12:52;;;;;;;;;0.00;0.00;;;;;15.03;100.00;100751.91;5035372;28;45420;-71
2022/09/26 04:15:17;;;;;;;;;0.67;0.67;;;;;15.04;100.00;100758.97;5035418;28;57564;-72
2022/09/26 04:17:43;;;;;;;;;0.00;0.00;;;;;15.03;100.00;100751.03;5035088;28;58234;-72
2022/09/26 04:20:08;;;;;;;;;0.00;0.00;;;;;15.01;100.00;100732.41;5035570;28;65128;-70
2022/09/26 04:22:33;;;;;;;;;0.67;0.00;;;;;15.02;100.00;100739.50;5035695;28;45404;-70
2022/09/26 04:24:59;;;;;;;;;2.00;0.00;;;;;14.98;100.00;100718.25;5036366;28;45475;-72
2022/09/26 04:27:26;;;;;;;;;1.33;0.00;;;;;15.00;100.00;100725.31;5036376;28;45637;-72
2022/09/26 04:29:52;;;;;;;;;1.33;0.00;;;;;14.98;100.00;100727.13;5035298;28;45749;-72
2022/09/26 04:32:18;;;;;;;;;0.00;0.00;;;;;14.92;100.00;100712.09;5035225;28;61782;-71
2022/09/26 04:34:43;;;;;;;;;1.00;0.00;;;;;14.97;100.00;100708.50;5035735;28;45325;-72
2022/09/26 04:37:09;;;;;;;;;1.00;1.00;;;;;14.94;100.00;100693.47;5016563;28;58410;-72
2022/09/26 04:39:34;;;;;;;;;0.00;0.00;;;;;15.00;100.00;100689.88;5023727;28;45558;-72
2022/09/26 04:42:00;;;;;;;;;0.00;0.00;;;;;14.89;100.00;100668.72;5015582;28;45531;-71
2022/09/26 04:44:25;;;;;;;;;0.00;0.00;;;;;15.02;100.00;100681.00;5016893;28;45429;-72
2022/09/26 04:46:50;;;;;;;;;1.00;0.00;;;;;15.01;100.00;100681.88;5015632;28;56036;-72
2022/09/26 04:49:16;;;;;;;;;2.00;1.00;;;;;15.03;100.00;100685.41;5019976;28;45546;-72
2022/09/26 04:51:41;;;;;;;;;0.00;0.00;;;;;15.04;100.00;100684.53;5018108;28;47281;-71
2022/09/26 04:54:07;;;;;;;;;0.00;0.00;;;;;15.05;100.00;100677.41;5018181;28;45488;-72
2022/09/26 04:56:32;;;;;;;;;0.33;0.33;;;;;15.05;100.00;100667.66;5023694;28;45471;-71
2022/09/26 04:58:58;;;;;;;;;0.00;0.00;;;;;15.01;100.00;100657.06;5017240;28;46683;-74
2022/09/26 05:01:24;;;;;;;;;0.00;0.00;;;;;15.04;100.00;100662.38;5017464;28;45378;-71
2022/09/26 05:03:50;;;;;;;;;0.00;0.00;;;;;15.04;100.00;100659.72;5021891;28;47264;-72
2022/09/26 05:06:16;;;;;;;;;0.67;0.67;;;;;15.03;100.00;100658.84;5007078;28;45273;-73
2022/09/26 05:08:47;;;;;;;;;1.33;1.00;;;;;15.00;100.00;100639.34;5031878;28;46181;-71
2022/09/26 05:11:15;;;;;;;;;0.33;0.33;;;;;15.01;100.00;100630.47;5019875;28;45333;-71
2022/09/26 05:13:40;;;;;;;;;1.00;1.00;;;;;15.05;100.00;100633.09;5016475;28;45330;-71
2022/09/26 05:16:09;;;;;;;;;0.00;0.00;;;;;15.02;100.00;100610.97;5025637;28;45483;-71
2022/09/26 05:18:35;;;;;;;;;0.67;0.67;;;;;15.06;100.00;100610.03;5023339;28;45516;-71
2022/09/26 05:21:02;;;;;;;;;0.00;0.00;;;;;15.09;100.00;100604.69;5025195;28;45419;-72
2022/09/26 05:26:18;;;;;;;;;0.67;0.67;;;;;15.05;100.00;100589.66;5022757;28;45304;-71
2022/09/26 05:29:04;;;;;;;;;0.00;0.00;;;;;15.12;100.00;100604.66;5017263;28;45580;-71
2022/09/26 05:31:35;;;;;;;;;0.00;0.00;;;;;15.12;100.00;100592.22;5020926;28;45448;-73
2022/09/26 05:36:33;;;;;;;;;0.67;0.67;;;;;15.10;100.00;100593.16;5047817;28;46744;-71
2022/09/26 05:38:59;;;;;;;;;0.00;0.00;;;;;15.09;100.00;100592.28;5049576;28;71499;-70
2022/09/26 05:41:32;;;;;;;;;0.00;0.00;;;;;15.09;100.00;100597.59;5057580;28;45565;-72
2022/09/26 05:43:57;;;;;;;;;0.00;0.00;;;;;15.13;100.00;100594.00;5058374;28;45197;-71
2022/09/26 05:46:24;;;;;;;;;0.67;0.67;;;;;15.11;100.00;100593.13;5053060;28;45658;-72
2022/09/26 05:48:50;;;;;;;;;3.33;1.00;;;;;15.08;100.00;100595.84;5052118;28;46510;-70
2022/09/26 05:51:17;;;;;;;;;0.33;0.33;;;;;15.07;100.00;100596.72;5055185;28;45526;-71
2022/09/26 05:53:44;;;;;;;;;1.00;1.00;;;;;15.01;100.00;100579.97;5055329;28;45502;-71
2022/09/26 05:56:10;;;;;;;;;0.67;0.67;;;;;15.05;100.00;100589.66;5053061;28;45602;-70
2022/09/26 05:58:38;;;;;;;;;0.00;0.00;;;;;14.99;100.00;100579.97;5053631;28;46637;-71
2022/09/26 06:01:14;;;;;;;;;0.00;0.00;;;;;14.96;100.00;100581.78;5047742;28;45561;-72
2022/09/26 06:03:43;;;;;;;;;2.00;0.00;;;;;14.91;100.00;100580.09;5050153;28;45514;-70
2022/09/26 06:06:14;;;;;;;;;0.00;0.00;;;;;14.87;100.00;100575.69;5053453;28;45432;-71
2022/09/26 06:08:40;;;;;;;;;0.00;0.00;;;;;14.87;100.00;100580.13;5052188;28;46736;-71
2022/09/26 06:11:11;;;;;;;;;0.00;0.00;;;;;14.84;100.00;100582.81;5055872;28;45573;-71
2022/09/26 06:13:37;;;;;;;;;0.00;0.00;;;;;14.73;100.00;100556.34;5055191;28;45297;-72
2022/09/26 06:16:07;;;;;;;;;1.00;1.00;;;;;14.80;100.00;100570.44;5054264;28;45470;-70
2022/09/26 06:18:37;;;;;;;;;2.00;0.00;;;;;14.80;100.00;100575.75;5037977;28;48974;-71
2022/09/26 06:21:03;;;;;;;;;1.00;1.00;;;;;14.71;100.00;100566.13;5055543;28;45466;-73
2022/09/26 06:23:30;;;;;;;;;1.00;1.00;;;;;14.78;100.00;100577.56;5056954;28;46498;-72
2022/09/26 06:25:55;;;;;;;;;0.33;0.33;;;;;14.73;100.00;100564.31;5057446;28;45744;-71
2022/09/26 06:28:21;;;;;;;;;0.00;0.00;;;;;14.73;100.00;100559.00;5053481;28;61487;-69
2022/09/26 06:30:46;;;;;;;;;1.33;1.00;;;;;14.86;100.00;100575.69;5051599;28;61044;-69
2022/09/26 06:33:11;;;;;;;;;0.00;0.00;;;;;14.87;100.00;100573.03;5054936;28;62138;-69
2022/09/26 06:35:37;;;;;;;;;1.00;1.00;;;;;14.87;100.00;100569.50;5052628;28;47054;-71
2022/09/26 06:38:04;;;;;;;;;0.00;0.00;;;;;14.87;100.00;100569.50;5050516;28;65087;-73
2022/09/26 06:40:32;;;;;;;;;0.00;0.00;;;;;14.86;100.00;100555.31;5051760;28;45518;-72
2022/09/26 06:42:58;;;;;;;;;1.00;1.00;;;;;14.88;100.00;100560.63;5051641;28;45427;-70
2022/09/26 06:45:23;;;;;;;;;1.67;1.00;;;;;14.92;100.00;100562.34;5052554;28;45515;-69
2022/09/26 06:47:48;;;;;;;;;1.00;1.00;;;;;14.96;100.00;100560.50;5047807;28;68096;-69
2022/09/26 06:50:14;;;;;;;;;0.00;0.00;;;;;14.98;100.00;100551.63;5054346;28;54112;-69
2022/09/26 06:52:41;;;;;;;;;1.00;1.00;;;;;15.04;100.00;100543.59;5053304;28;45475;-70
2022/09/26 06:55:08;;;;;;;;;4.33;4.00;;;;;15.12;100.00;100541.69;5033914;28;45289;-73
2022/09/26 06:57:38;;;;;;;;;2.67;1.00;;;;;15.15;100.00;100531.03;5052873;28;46441;-69
2022/09/26 07:00:05;;;;;;;;;45.75;36.00;;;;;15.19;100.00;100532.75;5053219;28;45521;-69
2022/09/26 07:02:31;;;;;;;;;0.67;0.67;;;;;15.21;100.00;100524.75;5051821;28;45502;-70
2022/09/26 07:04:56;;;;;;;;;3.67;2.00;;;;;15.28;100.00;100523.75;5045367;28;60588;-72
2022/09/26 07:07:22;;;;;;;;;1.00;1.00;;;;;15.30;100.00;100519.31;5055841;28;45893;-72
2022/09/26 07:09:47;;;;;;;;;1.00;1.00;;;;;15.32;100.00;100516.63;5053315;28;45501;-69
2022/09/26 07:12:14;;;;;;;;;1.00;1.00;;;;;15.35;100.00;100517.47;5033172;28;46835;-70
2022/09/26 07:14:39;;;;;;;;;1.67;1.67;;;;;15.32;100.00;100496.22;5052839;28;45606;-67
2022/09/26 07:17:05;;;;;;;;;54.50;44.25;;;;;15.32;100.00;100485.59;5050686;28;45659;-70
2022/09/26 07:19:30;;;;;;;;;0.00;0.00;;;;;15.40;100.00;100502.34;5049736;28;65770;-70
2022/09/26 07:21:55;;;;;;;;;0.00;0.00;;;;;15.38;100.00;100473.97;5053229;28;65780;-73
2022/09/26 07:24:20;;;;;;;;;0.33;0.33;;;;;15.42;100.00;100467.72;5053182;28;62194;-71
2022/09/26 07:26:46;;;;;;;;;1.00;1.00;;;;;15.50;100.00;100462.28;5051360;28;71104;-70
2022/09/26 07:29:11;;;;;;;;;2.00;0.67;;;;;15.51;100.00;100459.63;5052477;28;69428;-69
2022/09/26 07:31:37;;;;;;;;;0.00;0.00;;;;;15.56;100.00;100465.75;5054517;28;45581;-69
2022/09/26 07:34:03;;;;;;;;;1.00;1.00;;;;;15.59;100.00;100455.03;5052647;28;48244;-68
2022/09/26 07:36:29;;;;;;;;;0.67;0.67;;;;;15.64;100.00;100460.31;5050592;28;46643;-70
2022/09/26 07:38:54;;;;;;;;;0.00;0.00;;;;;15.69;100.00;100450.47;5053191;28;45564;-68
2022/09/26 07:41:20;;;;;;;;;0.00;0.00;;;;;15.67;100.00;100434.53;5049987;28;45498;-69
2022/09/26 07:43:45;;;;;;;;;1.00;1.00;;;;;15.74;100.00;100453.94;5046417;28;58594;-71
2022/09/26 07:51:38;;;;;;;;;0.00;0.00;;;;;15.88;100.00;100441.31;5039657;28;45222;-70
2022/09/26 07:54:04;;;;;;;;;2.00;1.00;;;;;15.85;100.00;100416.50;5052474;28;45376;-69
2022/09/26 07:56:32;;;;;;;;;1.33;1.33;;;;;15.93;100.00;100430.56;5051582;28;45866;-69
2022/09/26 07:59:00;;;;;;;;;2.00;2.00;;;;;15.93;100.00;100425.25;5053948;28;45553;-69
2022/09/26 08:01:25;;;;;;;;;3.00;0.67;;;;;15.97;100.00;100424.25;5052899;28;45575;-69
2022/09/26 08:03:54;;;;;;;;;3.00;1.00;;;;;16.02;100.00;100427.72;5034207;28;62422;-70
2022/09/26 08:06:19;;;;;;;;;4.33;1.00;;;;;16.02;100.00;100435.72;5052843;28;46140;-69
2022/09/26 08:08:47;;;;;;;;;1.00;1.00;;;;;16.06;100.00;100426.78;5054229;28;45368;-69
2022/09/26 08:11:16;;;;;;;;;1.00;1.00;;;;;16.08;100.00;100411.63;5052384;28;45581;-70
2022/09/26 08:13:43;;;;;;;;;0.00;0.00;;;;;16.20;100.00;100421.22;5053249;28;45549;-72
2022/09/26 08:16:09;;;;;;;;;0.00;0.00;;;;;16.33;100.00;100411.19;5034085;28;47470;-69
2022/09/26 08:18:34;;;;;;;;;0.00;0.00;;;;;16.44;100.00;100409.19;5033098;28;45427;-71
2022/09/26 08:21:07;;;;;;;;;2.00;0.00;;;;;16.51;100.00;100408.13;5051154;28;52919;-70
2022/09/26 08:23:33;;;;;;;;;0.00;0.00;;;;;16.56;100.00;100402.72;5053307;28;45821;-73
2022/09/26 08:26:02;;;;;;;;;1.00;1.00;;;;;16.61;100.00;100391.06;5052490;28;47323;-72
2022/09/26 08:28:27;;;;;;;;;1.00;1.00;;;;;16.63;100.00;100386.59;5051308;28;45386;-69
2022/09/26 08:30:53;;;;;;;;;0.00;0.00;;;;;16.64;100.00;100375.00;5052226;28;45422;-69
2022/09/26 08:33:20;;;;;;;;;1.00;1.00;;;;;16.71;100.00;100376.66;5053143;28;55405;-71
2022/09/26 08:35:47;;;;;;;;;0.00;0.00;;;;;16.68;100.00;100374.03;5039581;28;46570;-71
2022/09/26 08:38:14;;;;;;;;;2.00;2.00;;;;;16.76;100.00;100372.09;5033937;28;45402;-69
2022/09/26 08:41:20;;;;;;;;;1.00;1.00;;;;;16.84;100.00;100366.63;5030656;28;45759;-72
2022/09/26 08:44:21;;;;;;;;;1.00;1.00;;;;;16.89;100.00;100348.72;5029979;28;45375;-70
2022/09/26 08:47:04;;;;;;;;;1.00;1.00;;;;;17.01;100.00;100352.91;5012324;28;46700;-69
2022/09/26 08:49:41;;;;;;;;;1.67;1.33;;;;;17.08;100.00;100358.97;5020541;28;45585;-69
2022/09/26 08:52:23;;;;;;;;;23.67;17.33;;;;;17.15;100.00;100352.56;5033188;28;45316;-69
2022/09/26 08:54:49;;;;;;;;;0.33;0.33;;;;;17.18;100.00;100345.38;5024811;28;45620;-69
2022/09/26 08:57:34;;;;;;;;;6.00;4.00;;;;;17.25;100.00;100343.44;5012601;28;46624;-69
2022/09/26 09:00:08;;;;;;;;;1.00;1.00;;;;;17.32;100.00;100333.50;5025945;28;46197;-69
2022/09/26 09:03:19;;;;;;;;;0.00;0.00;;;;;17.41;100.00;100330.59;5015763;28;45540;-72
2022/09/26 09:05:52;;;;;;;;;1.00;1.00;;;;;17.46;100.00;100329.56;5006455;28;45743;-70
2022/09/26 09:08:21;;;;;;;;;0.67;0.67;;;;;17.50;100.00;100331.22;5029014;28;45582;-69
2022/09/26 09:10:53;;;;;;;;;3.33;1.00;;;;;17.55;100.00;100325.78;5031294;28;45450;-70
2022/09/26 09:13:34;;;;;;;;;0.00;0.00;;;;;17.55;100.00;100318.66;5026908;28;45489;-70
2022/09/26 09:16:07;;;;;;;;;7.00;5.33;;;;;17.55;100.00;100305.31;5015797;28;45474;-70
2022/09/26 09:18:51;;;;;;;;;3.00;3.00;;;;;17.56;100.00;100306.16;5030154;28;45710;-68
2022/09/26 09:21:41;;;;;;;;;1.67;1.00;;;;;17.55;100.00;100301.75;5030664;28;45507;-69
2022/09/26 09:24:18;;;;;;;;;1.00;1.00;;;;;17.53;100.00;100296.47;5037653;28;45607;-70
2022/09/26 09:26:46;;;;;;;;;1.67;1.00;;;;;17.57;100.00;100291.03;5037573;28;45638;-70
2022/09/26 09:29:34;;;;;;;;;1.00;1.00;;;;;17.66;100.00;100282.78;5018008;28;47734;-71
2022/09/26 09:32:01;;;;;;;;;0.00;0.00;;;;;17.72;99.73;100255.91;5033418;28;45544;-73
2022/09/26 09:34:31;;;;;;;;;2.00;0.67;;;;;17.77;99.79;100264.72;5032988;28;63017;-71
2022/09/26 09:37:02;;;;;;;;;1.00;1.00;;;;;17.79;98.09;100253.06;5052845;28;45564;-71
2022/09/26 09:39:34;;;;;;;;;1.00;1.00;;;;;17.75;97.94;100240.72;5054659;28;45735;-71
2022/09/26 09:42:04;;;;;;;;;18.67;13.00;;;;;17.87;98.91;100257.31;5071914;28;45500;-71
2022/09/26 09:44:39;;;;;;;;;2.00;1.00;;;;;17.89;97.86;100258.13;5053579;28;45474;-71
2022/09/26 09:47:13;;;;;;;;;1.00;1.00;;;;;17.84;97.02;100247.59;5056421;28;45524;-72
2022/09/26 09:49:40;;;;;;;;;6.33;3.00;;;;;17.80;96.48;100232.59;5053938;28;47449;-71
2022/09/26 09:52:46;;;;;;;;;0.00;0.00;;;;;17.77;96.91;100243.34;5055489;28;45622;-71
2022/09/26 09:55:34;;;;;;;;;1.00;1.00;;;;;17.71;96.03;100238.16;5036417;28;45536;-72
2022/09/26 09:58:42;;;;;;;;;2.00;1.00;;;;;17.51;95.63;100244.88;5055583;28;45371;-74
2022/09/26 10:01:18;;;;;;;;;1.00;1.00;;;;;17.48;96.07;100220.97;5050898;28;47602;-73
2022/09/26 10:03:43;;;;;;;;;0.33;0.00;;;;;17.45;96.07;100220.16;5070792;28;45774;-69
2022/09/26 10:06:10;;;;;;;;;0.33;0.33;;;;;17.45;97.26;100217.50;5052968;28;45529;-69
2022/09/26 10:08:39;;;;;;;;;0.33;0.33;;;;;17.49;97.26;100224.50;5055251;28;45437;-69
2022/09/26 10:11:27;;;;;;;;;1.00;1.00;;;;;17.55;98.04;100211.88;5052062;28;46644;-70
2022/09/26 10:13:55;;;;;;;;;1.00;1.00;;;;;17.54;98.07;100206.59;5038848;28;45534;-71
2022/09/26 10:16:21;;;;;;;;;1.00;1.00;;;;;17.42;98.70;100165.09;5049647;28;45450;-72
2022/09/26 10:18:54;;;;;;;;;1.00;1.00;;;;;17.48;100.00;100161.38;5055349;28;45645;-71
2022/09/26 10:21:20;;;;;;;;;2.00;0.67;;;;;17.46;100.00;100153.38;5052823;28;46308;-70
2022/09/26 10:23:48;;;;;;;;;3.00;1.67;;;;;17.57;99.55;100155.75;5052524;28;45458;-71
2022/09/26 10:26:13;;;;;;;;;2.00;0.00;;;;;17.50;98.98;100159.53;5055435;28;45540;-72
2022/09/26 10:28:48;;;;;;;;;1.67;0.00;;;;;17.50;98.69;100149.72;5053051;28;45533;-71
2022/09/26 10:31:23;;;;;;;;;2.67;2.00;;;;;17.55;99.02;100158.47;5054965;28;47597;-72
2022/09/26 10:33:56;;;;;;;;;1.00;1.00;;;;;17.54;100.00;100145.19;5054758;28;45489;-71
2022/09/26 10:36:29;;;;;;;;;0.00;0.00;;;;;17.61;100.00;100161.88;5053244;28;45474;-72
2022/09/26 10:41:44;;;;;;;;;1.00;1.00;;;;;17.49;100.00;100157.78;5049514;28;45326;-74
2022/09/26 10:44:29;;;;;;;;;4.67;4.00;;;;;17.42;100.00;100153.53;5049604;28;45303;-71
2022/09/26 10:46:57;;;;;;;;;2.00;2.00;;;;;17.28;100.00;100138.78;5050285;28;45678;-73
2022/09/26 10:49:35;;;;;;;;;5.33;1.00;;;;;17.21;100.00;100129.19;5053213;28;45496;-73
2022/09/26 10:52:22;;;;;;;;;1.00;1.00;;;;;17.24;100.00;100123.75;5052052;28;46263;-73
2022/09/26 10:55:02;;;;;;;;;1.00;1.00;;;;;17.15;100.00;100115.13;5054358;28;45730;-71
2022/09/26 10:57:52;;;;;;;;;1.00;1.00;;;;;17.12;100.00;100116.09;5048172;28;45490;-71
2022/09/26 11:00:20;;;;;;;;;0.33;0.33;;;;;16.97;100.00;100108.50;5042970;28;45616;-72
2022/09/26 11:02:50;;;;;;;;;1.00;1.00;;;;;16.89;100.00;100106.06;5053283;28;45705;-70
2022/09/26 11:08:05;;;;;;;;;2.00;1.00;;;;;16.60;100.00;100112.09;5052787;28;46980;-71
2022/09/26 11:10:31;;;;;;;;;1.00;1.00;;;;;16.59;100.00;100114.81;5055894;28;45536;-70
2022/09/26 11:13:16;;;;;;;;;3.00;1.00;;;;;16.58;100.00;100105.94;5049983;28;68712;-73
2022/09/26 11:16:06;;;;;;;;;2.00;2.00;;;;;16.55;100.00;100098.00;5054175;28;45796;-73
2022/09/26 11:18:45;;;;;;;;;1.33;1.00;;;;;16.49;100.00;100084.84;5052188;28;45654;-73
2022/09/26 11:21:33;;;;;;;;;1.00;1.00;;;;;16.51;100.00;100101.66;5053220;28;45615;-71
2022/09/26 11:24:14;;;;;;;;;2.00;2.00;;;;;16.41;100.00;100081.50;5052789;28;45865;-71
2022/09/26 11:26:51;;;;;;;;;3.00;1.33;;;;;16.36;100.00;100075.41;5053992;28;45501;-72
2022/09/26 11:29:52;;;;;;;;;2.00;1.67;;;;;16.32;100.00;100082.59;5052806;28;45635;-72
2022/09/26 11:32:25;;;;;;;;;2.33;1.00;;;;;16.23;100.00;100075.69;5056076;28;45581;-72
2022/09/26 11:34:53;;;;;;;;;1.00;1.00;;;;;16.18;100.00;100066.94;5052652;28;46199;-72
2022/09/26 11:37:29;;;;;;;;;3.00;1.00;;;;;16.18;100.00;100061.63;5050667;28;45498;-73
2022/09/26 11:40:16;;;;;;;;;3.00;1.00;;;;;16.19;100.00;100055.41;5052177;28;45700;-72
2022/09/26 11:43:00;;;;;;;;;2.00;1.00;;;;;16.13;100.00;100036.00;5049483;28;45221;-72
2022/09/26 11:45:47;;;;;;;;;2.33;2.00;;;;;16.15;100.00;100047.53;5050900;28;47598;-71
2022/09/26 11:48:41;;;;;;;;;3.00;1.33;;;;;16.09;100.00;100027.25;5056027;28;45296;-72
2022/09/26 11:51:13;;;;;;;;;2.00;1.00;;;;;16.01;100.00;100029.19;5028045;28;45419;-70
2022/09/26 11:53:46;;;;;;;;;1.00;1.00;;;;;15.92;100.00;100026.75;5053052;28;45414;-71